METAR AND TAF INFORMATION
METAR FOR KCRQ
KCRQ 130653Z AUTO 14004KT 10SM OVC037 14/08 A3002 RMK AO2 SLP165 T01390078
KCRQ 130553Z AUTO 18005KT 10SM FEW030 OVC036 14/08 A3002 RMK AO2 SLP164 T01440083 10150 20139 51015
KCRQ 130848Z 1309/1406 19005KT P6SM OVC035
FM131500 15010KT P6SM SCT025 OVC035
FM132300 21014KT 6SM -RA SCT020 BKN035
FM140400 27006KT P6SM VCSH SCT020 OVC035

 AIRPORT MAP

 RUNWAY INFORMATION
Runway 06 Runway length 4897 ft Runway width 150 ft
Runway elevation 331 ft Runway displaced threshold 297 ft Runway heading 79
Runway 24 Runway length 4897 ft Runway width 150 ft
Runway elevation 326 ft Runway displaced threshold 0 ft Runway heading 259

 AIRPORT FREQUENCIES
Type A/D Name SOCAL APP/ Frequency 127.3 MHZ
Type ATIS Name ATIS Frequency 120.15 MHZ
Type CLD Name CLNC DEL Frequency 134.85 MHZ
Type CTAF Name CTAF Frequency 118.6 MHZ
Type GND Name GND Frequency 121.8 MHZ
Type RDO Name SAN DIEGO Frequency 115.3 MHZ
Type TWR Name TWR Frequency 118.6 MHZ

 AIRPORT NEAR NAVIGATION AIDS

-